createdAt,value
2023-02-11T00:00:54.659Z,59.90
2023-02-11T00:03:26.895Z,59.20
2023-02-11T00:06:02.020Z,56.00
2023-02-11T00:08:29.617Z,56.30
2023-02-11T00:10:57.477Z,52.60
2023-02-11T00:13:25.010Z,52.50
2023-02-11T00:16:14.905Z,47.80
2023-02-11T00:18:41.754Z,44.90
2023-02-11T00:21:14.274Z,48.50
2023-02-11T00:23:41.421Z,45.00
2023-02-11T00:26:15.109Z,50.70
2023-02-11T00:28:42.231Z,46.20
2023-02-11T00:31:10.825Z,37.70
2023-02-11T00:33:38.058Z,38.80
2023-02-11T00:36:09.877Z,43.20
2023-02-11T00:38:48.854Z,42.90
2023-02-11T00:41:16.471Z,38.70
2023-02-11T00:43:43.367Z,42.40
2023-02-11T00:46:10.911Z,42.70
2023-02-11T00:48:38.181Z,39.70
2023-02-11T00:51:05.578Z,42.90
2023-02-11T00:53:33.336Z,43.10
2023-02-11T00:56:09.981Z,40.90
2023-02-11T00:58:37.626Z,46.70
2023-02-11T01:01:07.911Z,43.90
2023-02-11T01:03:35.086Z,41.90
2023-02-11T01:06:02.154Z,36.90
2023-02-11T01:08:32.050Z,46.20
2023-02-11T01:11:02.288Z,42.10
2023-02-11T01:13:30.706Z,40.60
2023-02-11T01:15:57.870Z,47.10
2023-02-11T01:18:25.355Z,42.40
2023-02-11T01:20:53.503Z,41.40
2023-02-11T01:23:20.944Z,41.60
2023-02-11T01:25:51.167Z,42.90
2023-02-11T01:28:21.292Z,40.20
2023-02-11T01:30:48.523Z,38.80
2023-02-11T01:33:16.126Z,41.10
2023-02-11T01:35:54.751Z,39.60
2023-02-11T01:38:26.456Z,40.60
2023-02-11T01:40:58.610Z,37.00
2023-02-11T01:43:26.930Z,37.50
2023-02-11T01:46:02.134Z,37.40
2023-02-11T01:48:33.504Z,40.20
2023-02-11T01:51:05.981Z,38.80
2023-02-11T01:53:53.102Z,39.70
2023-02-11T01:56:43.928Z,36.80
2023-02-11T01:59:18.266Z,38.70
2023-02-11T02:01:54.287Z,38.90
2023-02-11T02:04:27.157Z,35.60
2023-02-11T02:07:01.260Z,39.20
2023-02-11T02:09:32.944Z,41.30
2023-02-11T02:11:59.871Z,46.90
2023-02-11T02:14:27.530Z,39.10
2023-02-11T02:16:54.617Z,41.00
2023-02-11T02:19:55.893Z,43.10
2023-02-11T02:22:45.485Z,39.70
2023-02-11T02:25:29.424Z,40.30
2023-02-11T02:28:03.176Z,37.50
2023-02-11T02:30:51.437Z,39.10
2023-02-11T02:33:30.822Z,38.80
2023-02-11T02:36:06.329Z,40.40
2023-02-11T02:38:39.356Z,41.90
2023-02-11T02:41:11.235Z,41.60
2023-02-11T02:43:46.786Z,38.00
2023-02-11T02:46:17.428Z,36.60
2023-02-11T02:48:44.999Z,38.40
2023-02-11T02:51:26.537Z,37.30
2023-02-11T02:54:09.987Z,36.80
2023-02-11T02:56:47.469Z,33.90
2023-02-11T02:59:34.989Z,33.30
2023-02-11T03:02:11.984Z,36.90
2023-02-11T03:04:49.456Z,32.60
2023-02-11T03:07:24.418Z,39.80
2023-02-11T03:09:56.081Z,32.70
2023-02-11T03:12:25.694Z,34.80
2023-02-11T03:14:55.405Z,34.20
2023-02-11T03:17:24.846Z,35.60
2023-02-11T03:19:53.056Z,33.50
2023-02-11T03:22:26.554Z,34.00
2023-02-11T03:24:54.683Z,35.20
2023-02-11T03:27:28.547Z,35.80
2023-02-11T03:30:02.166Z,39.40
2023-02-11T03:35:05.352Z,36.60
2023-02-11T03:37:37.244Z,35.80
2023-02-11T03:40:08.034Z,42.30
2023-02-11T03:42:43.704Z,36.00
2023-02-11T03:45:17.027Z,34.30
2023-02-11T03:47:47.594Z,34.50
2023-02-11T03:50:17.213Z,37.20
2023-02-11T03:52:45.229Z,35.50
2023-02-11T03:55:14.698Z,36.70
2023-02-11T03:57:41.877Z,37.40
2023-02-11T04:00:11.384Z,31.90
2023-02-11T04:02:42.092Z,35.30
2023-02-11T04:05:11.491Z,39.30
2023-02-11T04:07:38.605Z,36.60
2023-02-11T04:10:09.902Z,34.70
2023-02-11T04:12:37.092Z,42.60
2023-02-11T04:15:04.178Z,39.80
2023-02-11T04:17:31.224Z,37.90
2023-02-11T04:19:58.283Z,37.00
2023-02-11T04:22:27.313Z,38.30
2023-02-11T04:24:57.637Z,39.40
2023-02-11T04:27:24.595Z,42.10
2023-02-11T04:29:51.623Z,39.00
2023-02-11T04:32:20.178Z,41.40
2023-02-11T04:34:47.590Z,41.70
2023-02-11T04:37:14.707Z,39.80
2023-02-11T04:39:53.248Z,40.10
2023-02-11T04:42:20.785Z,44.30
2023-02-11T04:44:47.999Z,47.30
2023-02-11T04:47:15.613Z,45.90
2023-02-11T04:49:43.076Z,45.20
2023-02-11T04:52:10.603Z,43.10
2023-02-11T04:54:37.641Z,44.80
2023-02-11T04:57:04.962Z,38.70
2023-02-11T04:59:31.979Z,45.90
2023-02-11T05:01:59.178Z,39.30
2023-02-11T05:04:26.358Z,39.20
2023-02-11T05:06:53.425Z,47.40
2023-02-11T05:09:20.455Z,42.50
2023-02-11T05:11:47.601Z,45.40
2023-02-11T05:14:16.701Z,42.60
2023-02-11T05:16:43.930Z,45.30
2023-02-11T05:19:13.845Z,50.10
2023-02-11T05:21:53.162Z,43.60
2023-02-11T05:24:24.080Z,44.80
2023-02-11T05:26:53.667Z,41.40
2023-02-11T05:29:20.610Z,41.60
2023-02-11T05:31:50.200Z,44.90
2023-02-11T05:34:17.116Z,44.50
2023-02-11T05:36:56.844Z,42.70
2023-02-11T05:39:23.942Z,43.50
2023-02-11T05:41:50.834Z,46.60
2023-02-11T05:44:18.187Z,42.90
2023-02-11T05:46:45.202Z,44.70
2023-02-11T05:49:12.170Z,43.30
2023-02-11T05:51:41.635Z,47.70
2023-02-11T05:54:12.969Z,43.90
2023-02-11T05:56:40.677Z,46.90
2023-02-11T05:59:08.975Z,43.90
2023-02-11T06:01:36.218Z,42.40
2023-02-11T06:04:05.712Z,42.00
2023-02-11T06:06:33.061Z,44.60
2023-02-11T06:09:00.214Z,44.80
2023-02-11T06:11:27.240Z,44.70
2023-02-11T06:13:54.613Z,48.00
2023-02-11T06:16:21.946Z,44.90
2023-02-11T06:18:48.982Z,48.50
2023-02-11T06:21:16.262Z,46.00
2023-02-11T06:23:43.840Z,44.90
2023-02-11T06:26:19.041Z,47.80
2023-02-11T06:28:46.836Z,44.70
2023-02-11T06:31:14.358Z,42.50
2023-02-11T06:33:41.543Z,48.90
2023-02-11T06:36:18.648Z,44.80
2023-02-11T06:38:46.413Z,46.40
2023-02-11T06:41:21.289Z,47.50
2023-02-11T06:43:48.772Z,51.30
2023-02-11T06:46:36.255Z,45.10
2023-02-11T06:49:03.360Z,52.30
2023-02-11T06:51:30.472Z,45.80
2023-02-11T06:53:57.598Z,47.80
2023-02-11T06:56:27.545Z,49.80
2023-02-11T06:58:56.805Z,47.40
2023-02-11T07:01:24.910Z,50.50
2023-02-11T07:04:12.144Z,51.10
2023-02-11T07:06:41.470Z,47.70
2023-02-11T07:09:09.618Z,50.50
2023-02-11T07:11:38.965Z,51.20
2023-02-11T07:14:09.311Z,49.00
2023-02-11T07:16:36.789Z,48.20
2023-02-11T07:19:07.089Z,52.60
2023-02-11T07:21:45.340Z,49.90
2023-02-11T07:24:14.233Z,50.50
2023-02-11T07:26:41.509Z,51.50
2023-02-11T07:29:08.475Z,51.60
2023-02-11T07:31:35.917Z,53.70
2023-02-11T07:34:05.501Z,53.70
2023-02-11T07:36:33.628Z,53.30
2023-02-11T07:39:01.173Z,55.30
2023-02-11T07:41:28.917Z,55.30
2023-02-11T07:43:56.069Z,57.50
2023-02-11T07:46:25.019Z,57.20
2023-02-11T07:48:52.935Z,58.00
2023-02-11T07:51:23.367Z,53.60
2023-02-11T07:53:50.629Z,59.30
2023-02-11T07:56:18.704Z,60.40
2023-02-11T07:58:46.102Z,62.60
2023-02-11T08:01:15.208Z,57.90
2023-02-11T08:03:45.220Z,64.10
2023-02-11T08:06:17.407Z,62.30
2023-02-11T08:08:45.104Z,57.90
2023-02-11T08:11:14.433Z,67.40
2023-02-11T08:13:42.174Z,61.90
2023-02-11T08:16:10.210Z,61.50
2023-02-11T08:18:39.482Z,60.10
2023-02-11T08:21:09.465Z,57.20
2023-02-11T08:23:36.857Z,60.00
2023-02-11T08:26:06.160Z,69.10
2023-02-11T08:28:33.460Z,61.00
2023-02-11T08:31:05.779Z,60.20
2023-02-11T08:33:32.769Z,64.70
2023-02-11T08:36:00.166Z,63.40
2023-02-11T08:38:27.376Z,66.80
2023-02-11T08:40:54.430Z,62.50
2023-02-11T08:43:21.475Z,63.30
2023-02-11T08:45:48.609Z,64.70
2023-02-11T08:48:15.795Z,64.50
2023-02-11T08:50:43.033Z,63.50
2023-02-11T08:53:10.328Z,63.00
2023-02-11T08:55:37.495Z,63.90
2023-02-11T08:58:04.769Z,59.20
2023-02-11T09:00:32.137Z,61.90
2023-02-11T09:02:59.293Z,64.80
2023-02-11T09:05:29.627Z,60.50
2023-02-11T09:07:56.661Z,58.50
2023-02-11T09:10:24.071Z,58.50
2023-02-11T09:12:51.110Z,59.40
2023-02-11T09:15:18.022Z,65.00
2023-02-11T09:17:45.070Z,58.30
2023-02-11T09:20:13.751Z,65.30
2023-02-11T09:22:40.693Z,61.50
2023-02-11T09:25:10.287Z,63.10
2023-02-11T09:27:39.454Z,63.30
2023-02-11T09:30:07.407Z,63.00
2023-02-11T09:32:35.495Z,56.80
2023-02-11T09:35:02.535Z,62.60
2023-02-11T09:37:31.872Z,71.00
2023-02-11T09:40:01.328Z,57.80
2023-02-11T09:42:59.761Z,62.80
2023-02-11T09:45:31.202Z,59.60
2023-02-11T09:48:02.796Z,59.50
2023-02-11T09:50:35.785Z,62.50
2023-02-11T09:53:06.236Z,62.90
2023-02-11T09:55:38.121Z,64.60
2023-02-11T09:58:08.707Z,64.40
2023-02-11T10:00:40.502Z,62.60
2023-02-11T10:03:37.082Z,66.60
2023-02-11T10:06:27.087Z,66.70
2023-02-11T10:09:07.065Z,65.90
2023-02-11T10:11:46.280Z,65.60
2023-02-11T10:14:28.684Z,65.70
2023-02-11T10:17:07.608Z,64.00
2023-02-11T10:19:47.565Z,62.40
2023-02-11T10:22:20.567Z,65.40
2023-02-11T10:24:55.375Z,65.20
2023-02-11T10:27:35.294Z,65.00
2023-02-11T10:30:08.053Z,69.60
2023-02-11T10:32:45.280Z,70.20
2023-02-11T10:35:18.187Z,71.10
2023-02-11T10:37:45.283Z,68.90
2023-02-11T10:40:18.092Z,63.90
2023-02-11T10:42:48.950Z,69.00
2023-02-11T10:45:23.451Z,66.80
2023-02-11T10:47:50.654Z,65.00
2023-02-11T10:50:27.197Z,63.90
2023-02-11T10:52:57.019Z,71.50
2023-02-11T10:55:28.792Z,66.60
2023-02-11T10:58:02.292Z,70.10
2023-02-11T11:00:52.410Z,71.30
2023-02-11T11:03:22.012Z,72.60
2023-02-11T11:06:11.058Z,72.60
2023-02-11T11:08:47.089Z,71.50
2023-02-11T11:11:17.181Z,78.00
2023-02-11T11:13:56.532Z,78.50
2023-02-11T11:16:29.105Z,74.00
2023-02-11T11:19:17.238Z,76.10
2023-02-11T11:21:47.383Z,73.80
2023-02-11T11:24:22.267Z,77.20
2023-02-11T11:26:51.422Z,77.10
2023-02-11T11:29:21.290Z,83.70
2023-02-11T11:31:57.045Z,80.30
2023-02-11T11:34:32.892Z,83.10
2023-02-11T11:37:01.835Z,79.80
2023-02-11T11:39:31.696Z,87.00
2023-02-11T11:42:01.432Z,89.80
2023-02-11T11:44:31.749Z,84.50
2023-02-11T11:47:26.141Z,86.80
2023-02-11T11:50:07.049Z,87.80
2023-02-11T11:52:43.323Z,94.20
2023-02-11T11:55:19.258Z,87.10
2023-02-11T11:58:11.822Z,88.60
2023-02-11T12:00:49.840Z,90.80
2023-02-11T12:03:43.874Z,90.70
2023-02-11T12:06:33.669Z,95.00
2023-02-11T12:09:11.190Z,87.00
2023-02-11T12:11:53.416Z,93.30
2023-02-11T12:14:32.321Z,93.20
2023-02-11T12:17:04.439Z,89.70
2023-02-11T12:19:56.582Z,87.40
2023-02-11T12:22:35.344Z,87.60
2023-02-11T12:25:22.117Z,89.30
2023-02-11T12:27:57.720Z,87.40
2023-02-11T12:30:53.897Z,90.30
2023-02-11T12:33:33.801Z,85.70
2023-02-11T12:36:03.679Z,84.30
2023-02-11T12:38:51.952Z,86.30
2023-02-11T12:41:58.194Z,84.70
2023-02-11T12:44:38.640Z,85.70
2023-02-11T12:47:16.221Z,82.90
2023-02-11T12:52:52.082Z,82.70
2023-02-11T12:55:24.068Z,83.90
2023-02-11T12:57:57.358Z,84.60
2023-02-11T13:00:28.374Z,82.50
2023-02-11T13:03:01.239Z,81.90
2023-02-11T13:05:33.930Z,83.90
2023-02-11T13:08:07.731Z,80.70
2023-02-11T13:10:38.023Z,83.80
2023-02-11T13:13:18.158Z,79.80
2023-02-11T13:15:46.904Z,83.20
2023-02-11T13:18:23.557Z,79.50
2023-02-11T13:23:26.877Z,80.00
2023-02-11T13:26:00.445Z,87.70
2023-02-11T13:28:54.438Z,85.30
2023-02-11T13:31:21.959Z,86.80
2023-02-11T13:33:51.562Z,86.80
2023-02-11T13:36:29.318Z,90.20
2023-02-11T13:39:00.907Z,82.80
2023-02-11T13:41:31.849Z,87.20
2023-02-11T13:44:05.155Z,85.10
2023-02-11T13:46:57.622Z,86.30
2023-02-11T13:49:28.011Z,80.00
2023-02-11T13:51:56.018Z,96.60
2023-02-11T13:54:27.959Z,89.40
2023-02-11T13:57:24.817Z,84.20
2023-02-11T14:00:02.396Z,94.80
2023-02-11T14:03:43.060Z,92.70
2023-02-11T14:06:43.528Z,89.20
2023-02-11T14:09:40.297Z,98.40
2023-02-11T14:12:26.621Z,93.00
2023-02-11T14:15:18.514Z,91.60
2023-02-11T14:17:45.960Z,92.10
2023-02-11T14:20:44.740Z,85.20
2023-02-11T14:23:27.452Z,88.30
2023-02-11T14:26:13.317Z,89.10
2023-02-11T14:28:49.695Z,90.00
2023-02-11T14:31:22.438Z,86.40
2023-02-11T14:34:07.947Z,88.60
2023-02-11T14:37:13.258Z,85.90
2023-02-11T14:39:56.743Z,81.30
2023-02-11T14:42:27.041Z,76.10
2023-02-11T14:44:56.132Z,83.90
2023-02-11T14:47:31.548Z,81.00
2023-02-11T14:50:01.564Z,80.70
2023-02-11T14:52:33.138Z,80.30
2023-02-11T14:55:17.763Z,87.10
2023-02-11T14:57:45.969Z,83.60
2023-02-11T15:00:22.569Z,82.00
2023-02-11T15:03:25.229Z,85.30
2023-02-11T15:05:59.928Z,83.50
2023-02-11T15:08:31.891Z,81.50
2023-02-11T15:11:22.389Z,76.40
2023-02-11T15:14:16.517Z,80.10
2023-02-11T15:16:55.940Z,83.50
2023-02-11T15:19:27.314Z,75.50
2023-02-11T15:21:55.372Z,77.60
2023-02-11T15:24:28.662Z,82.90
2023-02-11T15:27:05.249Z,86.80
2023-02-11T15:29:39.676Z,82.40
2023-02-11T15:32:16.861Z,79.60
2023-02-11T15:34:44.787Z,82.70
2023-02-11T15:37:27.021Z,82.80
2023-02-11T15:39:55.610Z,81.70
2023-02-11T15:42:26.637Z,77.00
2023-02-11T15:45:12.159Z,83.30
2023-02-11T15:47:39.791Z,77.80
2023-02-11T15:50:23.514Z,75.80
2023-02-11T15:52:52.017Z,79.70
2023-02-11T15:55:21.077Z,75.80
2023-02-11T15:57:52.405Z,71.50
2023-02-11T16:00:22.647Z,77.70
2023-02-11T16:02:51.072Z,72.10
2023-02-11T16:05:36.508Z,74.80
2023-02-11T16:08:22.133Z,74.10
2023-02-11T16:11:03.310Z,71.80
2023-02-11T16:13:33.612Z,74.70
2023-02-11T16:16:23.562Z,72.90
2023-02-11T16:19:04.268Z,69.00
2023-02-11T16:21:39.509Z,67.00
2023-02-11T16:24:08.042Z,64.70
2023-02-11T16:26:41.530Z,69.50
2023-02-11T16:29:14.453Z,65.20
2023-02-11T16:31:44.060Z,63.10
2023-02-11T16:34:24.354Z,64.70
2023-02-11T16:36:52.780Z,61.80
2023-02-11T16:39:40.399Z,61.00
2023-02-11T16:42:08.121Z,64.20
2023-02-11T16:44:55.676Z,65.10
2023-02-11T16:47:27.247Z,65.10
2023-02-11T16:49:55.286Z,63.80
2023-02-11T16:52:23.981Z,63.40
2023-02-11T16:54:51.442Z,64.00
2023-02-11T16:57:38.662Z,61.80
2023-02-11T17:00:12.434Z,62.60
2023-02-11T17:02:40.123Z,58.10
2023-02-11T17:05:20.214Z,60.80
2023-02-11T17:10:18.354Z,56.40
2023-02-11T17:12:45.330Z,61.10
2023-02-11T17:15:15.755Z,58.00
2023-02-11T17:17:42.741Z,61.60
2023-02-11T17:20:12.525Z,53.70
2023-02-11T17:22:39.555Z,54.60
2023-02-11T17:25:06.895Z,55.10
2023-02-11T17:27:34.565Z,59.20
2023-02-11T17:30:07.367Z,51.90
2023-02-11T17:32:38.027Z,50.80
2023-02-11T17:35:09.045Z,49.60
2023-02-11T17:37:36.257Z,51.00
2023-02-11T17:40:07.439Z,52.20
2023-02-11T17:42:37.603Z,51.10
2023-02-11T17:45:04.891Z,48.00
2023-02-11T17:47:34.209Z,45.30
2023-02-11T17:50:21.612Z,48.70
2023-02-11T17:52:48.646Z,43.70
2023-02-11T17:55:15.531Z,48.10
2023-02-11T17:57:55.608Z,46.00
2023-02-11T18:00:29.089Z,49.00
2023-02-11T18:02:57.641Z,53.00
2023-02-11T18:05:26.987Z,49.10
2023-02-11T18:08:07.698Z,47.00
2023-02-11T18:10:35.282Z,47.70
2023-02-11T18:13:02.518Z,46.60
2023-02-11T18:15:29.864Z,46.60
2023-02-11T18:17:59.187Z,48.60
2023-02-11T18:20:26.169Z,48.10
2023-02-11T18:23:14.063Z,41.50
2023-02-11T18:25:44.428Z,44.50
2023-02-11T18:28:11.611Z,44.40
2023-02-11T18:30:39.092Z,42.00
2023-02-11T18:33:08.909Z,43.60
2023-02-11T18:35:56.531Z,42.90
2023-02-11T18:38:26.268Z,39.10
2023-02-11T18:40:53.355Z,37.70
2023-02-11T18:46:11.631Z,38.60
2023-02-11T18:48:39.713Z,37.30
2023-02-11T18:51:11.474Z,39.60
2023-02-11T18:53:38.549Z,40.70
2023-02-11T18:56:09.961Z,36.60
2023-02-11T18:58:37.684Z,36.80
2023-02-11T19:01:10.813Z,36.10
2023-02-11T19:04:00.018Z,32.60
2023-02-11T19:06:31.970Z,29.40
2023-02-11T19:09:01.597Z,34.70
2023-02-11T19:11:50.488Z,31.60
2023-02-11T19:14:19.567Z,28.50
2023-02-11T19:16:47.758Z,30.20
2023-02-11T19:19:15.132Z,32.90
2023-02-11T19:21:45.436Z,31.90
2023-02-11T19:24:15.635Z,30.10
2023-02-11T19:26:43.480Z,32.00
2023-02-11T19:29:10.593Z,31.60
2023-02-11T19:31:38.066Z,27.60
2023-02-11T19:34:06.218Z,30.50
2023-02-11T19:36:33.306Z,34.10
2023-02-11T19:39:01.910Z,29.30
2023-02-11T19:41:29.593Z,31.60
2023-02-11T19:43:56.842Z,28.60
2023-02-11T19:46:24.483Z,29.50
2023-02-11T19:48:52.341Z,27.60
2023-02-11T19:51:20.347Z,28.80
2023-02-11T19:53:48.284Z,27.30
2023-02-11T19:56:18.651Z,28.20
2023-02-11T19:58:47.006Z,30.20
2023-02-11T20:01:34.664Z,24.00
2023-02-11T20:04:04.721Z,26.90
2023-02-11T20:06:33.209Z,26.30
2023-02-11T20:09:02.249Z,26.60
2023-02-11T20:11:30.935Z,31.60
2023-02-11T20:13:58.555Z,31.00
2023-02-11T20:16:44.601Z,26.20
2023-02-11T20:19:17.986Z,28.50
2023-02-11T20:21:49.521Z,30.00
2023-02-11T20:24:17.465Z,32.70
2023-02-11T20:26:56.624Z,27.00
2023-02-11T20:29:25.357Z,30.00
2023-02-11T20:31:52.719Z,27.10
2023-02-11T20:34:27.905Z,26.30
2023-02-11T20:36:55.781Z,29.90
2023-02-11T20:39:28.580Z,25.50
2023-02-11T20:41:56.588Z,26.90
2023-02-11T20:44:28.067Z,28.30
2023-02-11T20:46:55.884Z,27.00
2023-02-11T20:49:34.127Z,24.20
2023-02-11T20:52:15.893Z,25.50
2023-02-11T20:55:03.202Z,24.60
2023-02-11T21:00:17.105Z,25.30
2023-02-11T21:03:04.751Z,27.00
2023-02-11T21:05:34.566Z,25.50
2023-02-11T21:08:01.644Z,24.00
2023-02-11T21:10:29.463Z,25.70
2023-02-11T21:13:00.560Z,26.70
2023-02-11T21:15:27.826Z,26.60
2023-02-11T21:17:54.962Z,24.40
2023-02-11T21:20:22.158Z,25.10
2023-02-11T21:22:49.431Z,25.10
2023-02-11T21:28:02.058Z,29.60
2023-02-11T21:30:31.543Z,27.00
2023-02-11T21:33:00.781Z,16.10
2023-02-11T21:35:28.008Z,13.20
2023-02-11T21:37:55.013Z,9.40
2023-02-11T21:40:33.199Z,10.50
2023-02-11T21:43:10.473Z,8.70
2023-02-11T21:45:57.988Z,7.20
2023-02-11T21:48:45.288Z,4.50
2023-02-11T21:51:14.789Z,7.10
2023-02-11T21:54:03.672Z,4.70
2023-02-11T21:56:36.655Z,4.50
2023-02-11T21:59:23.850Z,6.40
2023-02-11T22:02:11.785Z,6.00
2023-02-11T22:04:38.822Z,4.00
2023-02-11T22:07:08.380Z,5.70
2023-02-11T22:09:35.474Z,3.70
2023-02-11T22:12:02.590Z,3.90
2023-02-11T22:14:32.201Z,3.40
2023-02-11T22:16:59.279Z,6.60
2023-02-11T22:19:26.430Z,4.20
2023-02-11T22:21:53.466Z,5.60
2023-02-11T22:24:20.762Z,4.40
2023-02-11T22:26:47.820Z,5.10
2023-02-11T22:29:14.833Z,6.10
2023-02-11T22:31:41.890Z,6.40
2023-02-11T22:34:09.901Z,4.70
2023-02-11T22:36:38.417Z,6.70
2023-02-11T22:39:07.308Z,3.70
2023-02-11T22:41:38.440Z,5.90
2023-02-11T22:44:05.503Z,4.40
2023-02-11T22:46:32.705Z,5.70
2023-02-11T22:48:59.721Z,4.10
2023-02-11T22:51:45.283Z,4.60
2023-02-11T22:54:15.203Z,3.70
2023-02-11T22:56:54.372Z,3.00
2023-02-11T22:59:24.727Z,5.60
2023-02-11T23:01:52.041Z,3.50
2023-02-11T23:04:39.466Z,3.60
2023-02-11T23:07:09.623Z,4.70
2023-02-11T23:09:38.955Z,3.40
2023-02-11T23:12:06.464Z,3.90
2023-02-11T23:14:54.697Z,3.60
2023-02-11T23:17:24.596Z,3.20
2023-02-11T23:19:56.814Z,3.20
2023-02-11T23:22:34.079Z,5.80
2023-02-11T23:25:01.586Z,4.20
2023-02-11T23:27:32.079Z,2.40
2023-02-11T23:30:02.072Z,3.80
2023-02-11T23:32:32.258Z,5.20
2023-02-11T23:34:59.319Z,7.50
2023-02-11T23:37:36.623Z,8.40
2023-02-11T23:40:07.123Z,5.00
2023-02-11T23:42:36.817Z,6.90
2023-02-11T23:45:03.801Z,6.10
2023-02-11T23:47:33.792Z,6.10
2023-02-11T23:50:06.941Z,3.40
2023-02-11T23:52:34.105Z,4.90
2023-02-11T23:55:12.861Z,5.80
2023-02-11T23:57:47.050Z,5.50
